Portada
METAR-TAF:

METAR-TAF

Aeropuertos :

Aeródromo de Zeltweg

Zeltweg, Austria

latitud: 47-12N, longitud: 014-45E, altitud: 677 m

Observación

El informe se hizo hace 20 minutos, a las 11:50 UTC
Viento 3 kt del oeste-suroeste, variando entre sur y noroeste
Temperatura 5°C
Humedad 30%
Presión 1006 hPa

METAR: LOXZ 271150Z 24003KT 190V310 50KM SCT070SC 05/M11 Q1006 NOSIG

Hora: 13:10 (12:10 UTC)

Pronóstico

El informe se hizo hace 55 minutos, a las 11:15 UTC
Pronóstico válido del 27 a las 12 UTC al 27 a las 21 UTC
Viento 12 kt del suroeste
Visibilidad 10 km o más
Nubes dispersas a una altura de 6000 ft
Evolucionando progresivamente
del 27 a las 13 UTC al 27 a las 15 UTC
Escasas nubes a una altura de 4500 ft
Nubes dispersas a una altura de 6000 ft
Cielo nuboso a una altura de 10000 ft

TAF: LOXZ 271115Z 2712/2721 23012KT 9999 SCT060 BECMG 2713/2715 FEW045 SCT060 BKN100

Observaciones y pronósticos meteorológicos de más de 4000 aeropuertos (mensajes METAR y TAF).

Los puntos amarillos y rojos representan las estaciones disponibles.

Ponga el ratón en el punto deseado para ver el nombre de la estación.

Haga clic para ver las observaciones y los pronósticos meteorológicos.

Para cambiar el mapa : haga clic en los botones verdes con una cruz de color negro para hacer un zoom, en el botón verde con un guión para alejar o en las flechas verdes para mapas adyacentes.


METAR-TAF: